| Time | Avg. Air Temp | Dew Point | Avg. Rel Humidity | Avg. 2 Min Wind Speed | Max Gust Velocity | MGV Time | MGV Direction | Avg. Spot Wind Velocity |
|---|---|---|---|---|---|---|---|---|
| 2026-05-07 13:50:00 | 4° C | -2° C | 63% | 5 km/h | 15 km/h | 13:48:00 | NW | 8 km/h |
| 12:50:00 | 4° C | -1° C | 72% | 12 km/h | 14 km/h | 12:48:00 | NW | 9 km/h |
| 11:50:00 | 4° C | -1° C | 73% | 2 km/h | 8 km/h | 11:48:00 | NW | 2 km/h |
| 10:50:00 | 2° C | 0° C | 88% | 8 km/h | 10 km/h | 10:47:00 | NE | 8 km/h |
| 09:50:00 | 1° C | 1° C | 100% | 8 km/h | 10 km/h | 09:47:00 | NW | 9 km/h |
| 08:50:00 | 1° C | 1° C | 100% | 8 km/h | 13 km/h | 08:48:00 | W | 9 km/h |
| 07:50:00 | 0° C | 0° C | 100% | 12 km/h | 16 km/h | 07:46:00 | NW | 11 km/h |
| 06:50:00 | 1° C | 1° C | 100% | 16 km/h | 22 km/h | 06:48:00 | NW | 16 km/h |
| 05:50:00 | 1° C | 1° C | 100% | 17 km/h | 22 km/h | 05:48:00 | NW | 15 km/h |
| 04:50:00 | 2° C | 2° C | 100% | 14 km/h | 18 km/h | 04:47:00 | W | 14 km/h |
| 03:50:00 | 2° C | 2° C | 100% | 22 km/h | 24 km/h | 03:50:00 | NW | 19 km/h |
| 02:50:00 | 2° C | 2° C | 100% | 19 km/h | 27 km/h | 02:47:00 | NW | 19 km/h |
| 01:50:00 | 3° C | 2° C | 93% | 24 km/h | 31 km/h | 01:48:00 | W | 26 km/h |
| 00:50:00 | 3° C | 1° C | 85% | 25 km/h | 28 km/h | 00:49:00 | W | 24 km/h |
| 23:50:00 | 4° C | 1° C | 78% | 23 km/h | 27 km/h | 23:48:00 | W | 23 km/h |
| 22:50:00 | 4° C | 1° C | 77% | 19 km/h | 26 km/h | 22:47:00 | W | 20 km/h |
| 21:50:00 | 4° C | 0° C | 75% | 20 km/h | 21 km/h | 21:50:00 | W | 19 km/h |
| 20:50:00 | 4° C | 1° C | 78% | 19 km/h | 25 km/h | 20:46:00 | NW | 18 km/h |
| 19:50:00 | 3° C | 3° C | 99% | 17 km/h | 27 km/h | 19:46:00 | NW | 20 km/h |
| 18:50:00 | 8° C | -1° C | 53% | 9 km/h | 12 km/h | 18:49:00 | NW | 9 km/h |
| 17:50:00 | 8° C | -1° C | 53% | 10 km/h | 15 km/h | 17:47:00 | W | 10 km/h |
| 16:50:00 | 8° C | -1° C | 55% | 15 km/h | 21 km/h | 16:46:00 | SW | 18 km/h |
| 15:50:00 | 8° C | -0° C | 57% | 13 km/h | 17 km/h | 15:46:00 | SW | 10 km/h |
| 14:50:00 | 7° C | -0° C | 60% | 16 km/h | 20 km/h | 14:50:00 | SW | 15 km/h |
Subpeak Weather
| Time | Avg. Air Temp | Dew Point | Avg. Rel Humidity | Avg. 2 Min Wind Speed | Max Gust Velocity | MGV Time | MGV Direction | Avg. Spot Wind Velocity |
|---|---|---|---|---|---|---|---|---|
| 2026-05-07 13:50:00 | 4° C | -2° C | 63% | 5 km/h | 15 km/h | 13:48:00 | NW | 8 km/h |
| 13:45:00 | 4° C | -2° C | 60% | 7 km/h | 11 km/h | 13:45:00 | NW | 4 km/h |
| 13:40:00 | 4° C | -3° C | 63% | 8 km/h | 16 km/h | 13:37:00 | NW | 8 km/h |
| 13:35:00 | 4° C | -2° C | 65% | 9 km/h | 18 km/h | 13:32:00 | NW | 11 km/h |
| 13:30:00 | 4° C | -2° C | 66% | 5 km/h | 12 km/h | 13:30:00 | N | 6 km/h |
| 13:25:00 | 4° C | -2° C | 63% | 8 km/h | 11 km/h | 13:25:00 | N | 8 km/h |
| 13:20:00 | 4° C | -2° C | 64% | 7 km/h | 13 km/h | 13:17:00 | W | 9 km/h |
| 13:15:00 | 4° C | -2° C | 66% | 5 km/h | 10 km/h | 13:15:00 | W | 5 km/h |
| 13:10:00 | 4° C | -2° C | 66% | 9 km/h | 15 km/h | 13:08:00 | NW | 6 km/h |
| 13:05:00 | 3° C | -3° C | 64% | 5 km/h | 11 km/h | 13:02:00 | NW | 6 km/h |
| 13:00:00 | 3° C | -3° C | 65% | 6 km/h | 12 km/h | 12:56:00 | N | 5 km/h |
| 12:55:00 | 3° C | -3° C | 67% | 11 km/h | 15 km/h | 12:53:00 | NW | 10 km/h |
| 12:50:00 | 4° C | -1° C | 72% | 12 km/h | 14 km/h | 12:48:00 | NW | 9 km/h |




